Guymon Municipal Airport
KGUY : now visible

Aeroporto :











RITROVATECI SU...

 
LOGIN :

Iscrizione | Disclaimer

   EN    FR    IT 

 









Sommario :    VFR   VFR Marginale   IFR   IFR Intensivo   IFR Molto Intensivo
Visibilità : 
Base nubi : 
>= 8 km
>= 3000ft
5 / 8 km
1000 / 3000 ft
1500m / 5 km
500 / 1000 ft
800 / 1500m
200 / 500 ft
< 800m
< 200 ft
Simboli :   Temporali  Nebbia  Neve Forte  Precipitazioni Forti  Vento > 20 kt







- Altitudine del aeroporto : 3123 ft


KGUY - Guymon Municipal

ULTIMO METAR :
  • 200553Z AUTO 19006KT 10SM CLR 09/02 A3003 RMK AO2 SLP145 T00940017 10228 20089 402390033 58001

METARs OBSOLETI :
  • 200453Z AUTO 21005KT 10SM CLR 10/01 A3003 RMK AO2 SLP149 T01000011
  • 200353Z AUTO 20005KT 10SM CLR 10/01 A3005 RMK AO2 SLP154 T01000006

TAF KGUY
Valido dal 20 a 06 ore il 21 a 06 ore UTC


200521Z 2006/2106 19006KT P6SM SKC
FM201400 21009KT P6SM SKC
FM210200 19012KT P6SM FEW200
FIR KZKC / America del Nord



MetMap, La meteo Aeronautica in un colpo d'occhio ! - Copyright ORBIFLY Dicembre 2007 - Disclaimer

ORBIFLY MET'MAP TEAM :

Programmazione e sviluppo : Alexandra Zaïnal
Concezione e sviluppo : Baudouin d'Aumeries
Co-Programmazione e sviluppo : Marc-Olivier Méhu
Supporto tecnico e logistico : Manuel Goepfert
Aiuto per la traduzione : Arnaldo La Scala

Contatto : metmap@orbifly.com




FONTI E CREDITI :

   NOAA       Earth
Advisory